Time;durP1;ratioP1;P1;durP2;ratioP2;P2;SDS_P1;SDS_P2;PMS_P1;PMS_P2;Temp;Humidity;BMP_temperature;BMP_pressure;BME280_temperature;BME280_humidity;BME280_pressure;Samples;Min_cycle;Max_cycle;Signal;HPM_P1;HPM_P2
2022/11/07 00:01:10;;;;;;;;;;;;;;;11.80;77.35;100756.31;5328413;32;35033;-68
2022/11/07 00:04:12;;;;;;;;;;;;;;;10.91;80.65;100752.56;5315736;32;35508;-68
2022/11/07 00:07:14;;;;;;;;;;;;;;;11.20;79.46;100755.00;5327173;32;35367;-69
2022/11/07 00:10:16;;;;;;;;;;;;;;;11.35;78.82;100751.84;5318859;32;35025;-70
2022/11/07 00:13:18;;;;;;;;;;;;;;;11.04;80.30;100753.84;5308115;32;35070;-70
2022/11/07 00:16:20;;;;;;;;;;;;;;;11.16;81.12;100761.31;5312132;32;35562;-68
2022/11/07 00:19:22;;;;;;;;;;;;;;;10.91;81.61;100753.44;5289089;32;35276;-69
2022/11/07 00:22:23;;;;;;;;;;;;;;;11.37;79.08;100755.28;5317530;32;34632;-68
2022/11/07 00:25:25;;;;;;;;;;;;;;;11.28;78.83;100753.00;5314529;32;35577;-68
2022/11/07 00:28:27;;;;;;;;;;;;;;;11.81;77.22;100765.97;5319687;32;35013;-70
2022/11/07 00:31:29;;;;;;;;;;;;;;;11.94;76.84;100768.97;5315019;32;34997;-68
2022/11/07 00:34:31;;;;;;;;;;;;;;;11.37;78.80;100778.97;5308109;32;34775;-68
2022/11/07 00:37:33;;;;;;;;;;;;;;;11.25;79.83;100771.50;5329304;32;34904;-70
2022/11/07 00:40:35;;;;;;;;;;;;;;;11.85;77.85;100769.31;5297628;32;45136;-68
2022/11/07 00:43:37;;;;;;;;;;;;;;;11.78;77.22;100775.69;5328516;32;34839;-70
2022/11/07 00:46:39;;;;;;;;;;;;;;;11.22;79.77;100771.63;5299515;32;35343;-69
2022/11/07 00:49:40;;;;;;;;;;;;;;;10.98;80.59;100769.84;5324599;32;35700;-71
2022/11/07 00:52:42;;;;;;;;;;;;;;;11.16;79.92;100773.63;5313531;32;36855;-69
2022/11/07 00:55:44;;;;;;;;;;;;;;;11.27;79.44;100777.59;5315867;32;34997;-69
2022/11/07 00:58:46;;;;;;;;;;;;;;;11.34;78.53;100772.97;5323531;32;34917;-69
2022/11/07 01:01:48;;;;;;;;;;;;;;;11.41;78.97;100770.97;5300120;32;34822;-71
2022/11/07 01:08:10;;;;;;;;;;;;;;;11.11;81.56;100765.87;5317193;32;46724;-70
2022/11/07 01:11:12;;;;;;;;;;;;;;;11.01;82.23;100769.72;5300883;32;35084;-70
2022/11/07 01:14:15;;;;;;;;;;;;;;;11.38;81.23;100770.16;5307243;32;35744;-71
2022/11/07 01:17:17;;;;;;;;;;;;;;;11.45;79.47;100773.41;5286184;32;35532;-70
2022/11/07 01:20:19;;;;;;;;;;;;;;;12.59;74.83;100760.22;5329935;32;34998;-70
2022/11/07 01:23:21;;;;;;;;;;;;;;;12.51;73.51;100753.56;5311841;32;34707;-68
2022/11/07 01:26:23;;;;;;;;;;;;;;;11.77;77.65;100761.69;5315968;32;34237;-71
2022/11/07 01:29:25;;;;;;;;;;;;;;;11.61;77.79;100760.56;5299786;32;35250;-69
2022/11/07 01:32:27;;;;;;;;;;;;;;;11.57;78.44;100751.03;5310348;32;34311;-68
2022/11/07 01:35:29;;;;;;;;;;;;;;;11.90;77.26;100760.31;5327890;32;35452;-68
2022/11/07 01:38:30;;;;;;;;;;;;;;;11.57;78.89;100769.47;5288847;32;34727;-69
2022/11/07 01:41:34;;;;;;;;;;;;;;;11.46;79.89;100769.00;5318019;32;34923;-69
2022/11/07 01:44:35;;;;;;;;;;;;;;;11.64;78.10;100766.53;5312167;32;47565;-70
2022/11/07 01:47:40;;;;;;;;;;;;;;;11.51;78.97;100761.81;5322744;32;34856;-71
2022/11/07 01:50:42;;;;;;;;;;;;;;;11.86;77.40;100769.28;5315019;32;35233;-69
2022/11/07 01:53:44;;;;;;;;;;;;;;;12.19;76.19;100769.75;5307348;32;34599;-70
2022/11/07 01:56:46;;;;;;;;;;;;;;;12.56;74.67;100770.91;5316144;32;34798;-68
2022/11/07 01:59:47;;;;;;;;;;;;;;;12.42;74.64;100776.72;5299498;32;35583;-69
2022/11/07 02:02:54;;;;;;;;;;;;;;;11.71;77.61;100776.84;5310815;32;35029;-68
2022/11/07 02:05:57;;;;;;;;;;;;;;;11.88;77.41;100770.06;5300054;32;34787;-68
2022/11/07 02:08:59;;;;;;;;;;;;;;;12.04;76.32;100769.47;5327164;32;35884;-68
2022/11/07 02:12:01;;;;;;;;;;;;;;;12.12;76.08;100772.69;5309311;32;36417;-70
2022/11/07 02:15:03;;;;;;;;;;;;;;;12.12;76.12;100773.53;5311127;32;34924;-70
2022/11/07 02:18:05;;;;;;;;;;;;;;;12.01;76.22;100774.88;5284579;33;45481;-69
2022/11/07 02:21:11;;;;;;;;;;;;;;;12.16;75.77;100779.53;5307794;32;35043;-70
2022/11/07 02:24:15;;;;;;;;;;;;;;;11.77;77.44;100766.94;5314519;32;35014;-68
2022/11/07 02:27:17;;;;;;;;;;;;;;;11.65;77.78;100772.66;5294581;32;34734;-69
2022/11/07 02:30:20;;;;;;;;;;;;;;;11.68;77.60;100775.22;5312992;32;34906;-69
2022/11/07 02:33:22;;;;;;;;;;;;;;;11.71;77.58;100766.31;5310781;32;35297;-68
2022/11/07 02:36:24;;;;;;;;;;;;;;;12.27;75.28;100768.56;5307533;32;34979;-68
2022/11/07 02:39:26;;;;;;;;;;;;;;;11.95;76.37;100773.31;5307349;32;35406;-70
2022/11/07 02:42:42;;;;;;;;;;;;;;;12.03;76.54;100773.03;5301233;32;35331;-71
2022/11/07 02:45:44;;;;;;;;;;;;;;;12.29;74.70;100778.12;5328994;32;47042;-69
2022/11/07 02:48:50;;;;;;;;;;;;;;;12.83;73.58;100760.97;5306982;32;35705;-68
2022/11/07 02:51:52;;;;;;;;;;;;;;;12.74;72.61;100761.34;5311970;32;34992;-68
2022/11/07 02:54:54;;;;;;;;;;;;;;;12.49;73.12;100758.84;5326702;32;35379;-70
2022/11/07 02:57:56;;;;;;;;;;;;;;;12.33;75.26;100763.06;5305400;32;34721;-68
2022/11/07 03:01:05;;;;;;;;;;;;;;;12.08;75.84;100771.94;5327156;32;35093;-70
2022/11/07 03:04:07;;;;;;;;;;;;;;;12.30;74.71;100764.06;5312296;32;45392;-68
2022/11/07 03:07:09;;;;;;;;;;;;;;;12.17;75.85;100766.31;5328132;32;35110;-70
2022/11/07 03:10:12;;;;;;;;;;;;;;;12.26;75.82;100765.09;5313826;32;34733;-68
2022/11/07 03:13:13;;;;;;;;;;;;;;;12.23;75.83;100764.34;5292180;32;34852;-70
2022/11/07 03:16:16;;;;;;;;;;;;;;;12.08;76.84;100764.03;5305888;32;34893;-70
2022/11/07 03:19:18;;;;;;;;;;;;;;;12.17;75.84;100762.78;5303738;32;34701;-68
2022/11/07 03:22:20;;;;;;;;;;;;;;;11.46;79.86;100758.47;5326291;32;34661;-69
2022/11/07 03:25:22;;;;;;;;;;;;;;;12.29;76.23;100754.41;5312544;32;34659;-70
2022/11/07 03:28:23;;;;;;;;;;;;;;;13.19;71.73;100742.66;5320985;32;35660;-67
2022/11/07 03:31:25;;;;;;;;;;;;;;;12.87;72.10;100756.41;5314878;32;34753;-70
2022/11/07 03:34:27;;;;;;;;;;;;;;;13.02;72.41;100750.50;5313640;32;35274;-69
2022/11/07 03:37:29;;;;;;;;;;;;;;;12.66;73.47;100758.19;5313293;32;35300;-70
2022/11/07 03:40:31;;;;;;;;;;;;;;;12.42;74.61;100760.88;5307961;32;35116;-68
2022/11/07 03:43:32;;;;;;;;;;;;;;;12.49;75.19;100758.84;5328146;32;35348;-67
2022/11/07 03:46:34;;;;;;;;;;;;;;;12.10;77.24;100766.59;5314868;32;34321;-70
2022/11/07 03:49:36;;;;;;;;;;;;;;;12.54;74.71;100756.91;5329025;32;44764;-68
2022/11/07 03:52:38;;;;;;;;;;;;;;;12.41;75.40;100763.59;5314568;32;35539;-72
2022/11/07 03:55:41;;;;;;;;;;;;;;;12.53;75.58;100762.25;5316238;32;34953;-70
2022/11/07 03:58:42;;;;;;;;;;;;;;;12.29;76.14;100764.94;5327656;32;34985;-70
2022/11/07 04:01:46;;;;;;;;;;;;;;;13.27;72.20;100761.72;5313581;32;35044;-70
2022/11/07 04:04:48;;;;;;;;;;;;;;;13.69;69.11;100765.13;5334146;32;35330;-69
2022/11/07 04:07:50;;;;;;;;;;;;;;;13.90;67.88;100766.75;5313668;32;35242;-68
2022/11/07 04:10:52;;;;;;;;;;;;;;;13.74;68.46;100771.06;5328279;32;34636;-70
2022/11/07 04:17:18;;;;;;;;;;;;;;;13.86;67.21;100783.69;5288360;32;45414;-68
2022/11/07 04:20:19;;;;;;;;;;;;;;;13.42;69.69;100781.28;5326409;32;35314;-68
2022/11/07 04:23:21;;;;;;;;;;;;;;;12.77;72.98;100792.87;5313488;32;34241;-68
2022/11/07 04:29:44;;;;;;;;;;;;;;;13.24;70.48;100784.75;5312977;32;45082;-69
2022/11/07 04:32:46;;;;;;;;;;;;;;;12.98;72.33;100785.84;5309124;32;34795;-68
2022/11/07 04:35:47;;;;;;;;;;;;;;;13.14;71.62;100784.25;5328328;32;35372;-69
2022/11/07 04:38:49;;;;;;;;;;;;;;;12.79;72.71;100788.38;5308275;32;34653;-69
2022/11/07 04:41:51;;;;;;;;;;;;;;;12.34;74.71;100791.97;5323375;32;35246;-71
2022/11/07 04:44:53;;;;;;;;;;;;;;;12.92;73.99;100786.09;5311392;32;34990;-70
2022/11/07 04:47:55;;;;;;;;;;;;;;;12.43;74.47;100775.81;5328369;32;34845;-70
2022/11/07 04:50:56;;;;;;;;;;;;;;;12.83;73.51;100776.78;5312078;32;34642;-70
2022/11/07 04:53:58;;;;;;;;;;;;;;;12.56;75.38;100777.91;5311660;32;34804;-68
2022/11/07 04:57:00;;;;;;;;;;;;;;;13.19;72.47;100769.06;5331930;32;34450;-70
2022/11/07 05:00:03;;;;;;;;;;;;;;;13.83;69.05;100767.97;5311995;32;35844;-69
2022/11/07 05:03:05;;;;;;;;;;;;;;;13.44;70.36;100753.03;5329589;32;44746;-69
2022/11/07 05:06:08;;;;;;;;;;;;;;;12.84;73.26;100765.31;5314638;32;35607;-68
2022/11/07 05:09:17;;;;;;;;;;;;;;;12.96;71.95;100777.13;5314952;32;34998;-70
2022/11/07 05:12:19;;;;;;;;;;;;;;;13.09;72.15;100766.91;5303087;32;35162;-70
2022/11/07 05:15:21;;;;;;;;;;;;;;;12.70;73.46;100770.31;5305756;32;34693;-68
2022/11/07 05:18:23;;;;;;;;;;;;;;;13.33;71.62;100765.87;5313498;32;34286;-68
2022/11/07 05:21:25;;;;;;;;;;;;;;;13.22;71.91;100776.03;5310924;32;35548;-70
2022/11/07 05:24:27;;;;;;;;;;;;;;;13.54;70.95;100779.87;5329438;32;35150;-70
2022/11/07 05:27:29;;;;;;;;;;;;;;;13.93;68.33;100781.62;5311885;32;34826;-68
2022/11/07 05:30:31;;;;;;;;;;;;;;;12.95;71.90;100780.69;5327725;32;34841;-70
2022/11/07 05:33:33;;;;;;;;;;;;;;;13.27;72.67;100776.69;5296035;33;35101;-70
2022/11/07 05:36:34;;;;;;;;;;;;;;;13.32;71.76;100779.97;5295560;32;35664;-70
2022/11/07 05:39:36;;;;;;;;;;;;;;;13.58;70.89;100777.94;5326742;32;46677;-70
2022/11/07 05:42:38;;;;;;;;;;;;;;;13.61;70.43;100783.09;5308240;32;34977;-71
2022/11/07 05:45:43;;;;;;;;;;;;;;;13.54;70.39;100791.31;5330133;32;34927;-70
2022/11/07 05:48:45;;;;;;;;;;;;;;;13.51;71.49;100793.22;5308721;32;35409;-70
2022/11/07 05:51:46;;;;;;;;;;;;;;;13.50;71.10;100804.72;5322962;32;34959;-70
2022/11/07 05:54:48;;;;;;;;;;;;;;;12.49;75.24;100824.78;5319779;32;37187;-70
2022/11/07 05:57:50;;;;;;;;;;;;;;;13.12;73.91;100816.91;5312727;32;36198;-68
2022/11/07 06:00:52;;;;;;;;;;;;;;;12.59;75.47;100822.63;5327441;32;35606;-68
2022/11/07 06:03:54;;;;;;;;;;;;;;;13.10;74.36;100819.63;5315251;32;34843;-70
2022/11/07 06:06:55;;;;;;;;;;;;;;;13.78;70.21;100822.81;5327429;32;34650;-70
2022/11/07 06:09:57;;;;;;;;;;;;;;;13.94;68.97;100826.47;5313020;32;34886;-69
2022/11/07 06:13:00;;;;;;;;;;;;;;;13.93;69.23;100827.41;5322956;32;36102;-71
2022/11/07 06:16:02;;;;;;;;;;;;;;;13.79;70.11;100822.75;5290330;32;34849;-71
2022/11/07 06:19:04;;;;;;;;;;;;;;;13.04;73.60;100832.22;5304926;32;34877;-70
2022/11/07 06:22:06;;;;;;;;;;;;;;;12.56;76.06;100830.66;5325443;32;46956;-69
2022/11/07 06:25:08;;;;;;;;;;;;;;;14.02;69.46;100836.69;5313084;32;34780;-69
2022/11/07 06:28:10;;;;;;;;;;;;;;;14.12;68.60;100845.91;5326387;32;34899;-70
2022/11/07 06:31:12;;;;;;;;;;;;;;;14.15;67.74;100855.47;5309575;32;35098;-67
2022/11/07 06:34:14;;;;;;;;;;;;;;;14.30;67.13;100870.66;5316656;32;34953;-68
2022/11/07 06:37:16;;;;;;;;;;;;;;;13.90;69.29;100879.53;5310149;32;34304;-71
2022/11/07 06:40:18;;;;;;;;;;;;;;;13.87;69.54;100871.75;5302571;32;35858;-68
2022/11/07 06:43:20;;;;;;;;;;;;;;;14.01;68.31;100875.47;5320749;32;34274;-68
2022/11/07 06:46:22;;;;;;;;;;;;;;;14.11;67.71;100881.22;5285969;32;35350;-72
2022/11/07 06:49:24;;;;;;;;;;;;;;;13.53;71.29;100883.81;5321493;32;34759;-68
2022/11/07 06:52:26;;;;;;;;;;;;;;;13.34;71.33;100878.47;5309844;32;36145;-67
2022/11/07 06:55:28;;;;;;;;;;;;;;;13.87;70.42;100883.16;5320248;32;34973;-70
2022/11/07 06:58:30;;;;;;;;;;;;;;;13.79;70.43;100880.03;5315332;32;35578;-70
2022/11/07 07:01:32;;;;;;;;;;;;;;;13.88;70.21;100886.66;5312132;32;34633;-67
2022/11/07 07:04:34;;;;;;;;;;;;;;;14.04;68.17;100874.50;5323091;32;35682;-73
2022/11/07 07:07:36;;;;;;;;;;;;;;;13.75;69.95;100883.72;5298716;32;44440;-68
2022/11/07 07:10:38;;;;;;;;;;;;;;;13.62;70.41;100893.09;5324548;32;34252;-71
2022/11/07 07:13:40;;;;;;;;;;;;;;;13.28;73.07;100892.78;5302783;32;36471;-68
2022/11/07 07:16:42;;;;;;;;;;;;;;;13.48;71.50;100901.63;5294865;32;35490;-71
2022/11/07 07:19:44;;;;;;;;;;;;;;;13.81;70.03;100900.16;5314879;32;36278;-68
2022/11/07 07:22:46;;;;;;;;;;;;;;;13.62;71.76;100903.66;5300405;32;34212;-72
2022/11/07 07:25:56;;;;;;;;;;;;;;;14.26;67.74;100899.00;5323423;32;35882;-74
2022/11/07 07:28:57;;;;;;;;;;;;;;;14.11;68.43;100906.78;5298744;32;35445;-71
2022/11/07 07:31:59;;;;;;;;;;;;;;;13.80;69.61;100902.88;5322661;32;35560;-68
2022/11/07 07:35:01;;;;;;;;;;;;;;;13.80;69.51;100914.28;5313751;32;35899;-74
2022/11/07 07:38:03;;;;;;;;;;;;;;;12.87;73.35;100910.25;5311894;32;35162;-75
2022/11/07 07:41:05;;;;;;;;;;;;;;;13.11;73.04;100918.13;5320388;32;46624;-71
2022/11/07 07:44:07;;;;;;;;;;;;;;;13.66;72.04;100916.69;5310930;32;34933;-72
2022/11/07 07:47:09;;;;;;;;;;;;;;;13.38;70.86;100919.63;5317025;32;34912;-73
2022/11/07 07:50:12;;;;;;;;;;;;;;;13.62;71.16;100915.09;5297086;32;34821;-71
2022/11/07 07:53:14;;;;;;;;;;;;;;;14.28;67.52;100910.34;5323265;32;34356;-72
2022/11/07 07:56:19;;;;;;;;;;;;;;;14.18;68.01;100913.50;5310875;32;34369;-74
2022/11/07 07:59:21;;;;;;;;;;;;;;;14.18;68.23;100909.06;5308620;32;34552;-70
2022/11/07 08:02:23;;;;;;;;;;;;;;;13.75;70.93;100918.06;5327776;32;35571;-69
2022/11/07 08:05:25;;;;;;;;;;;;;;;13.95;70.65;100911.87;5305618;32;35504;-76
2022/11/07 08:08:27;;;;;;;;;;;;;;;14.32;68.89;100909.28;5317428;32;35518;-76
2022/11/07 08:11:36;;;;;;;;;;;;;;;14.22;70.18;100913.28;5313067;32;34400;-74
2022/11/07 08:14:37;;;;;;;;;;;;;;;13.86;70.83;100907.03;5298615;32;47748;-73
2022/11/07 08:17:39;;;;;;;;;;;;;;;14.39;69.98;100906.38;5280968;32;36083;-73
2022/11/07 08:20:41;;;;;;;;;;;;;;;15.22;65.88;100908.56;5324065;32;34166;-70
2022/11/07 08:23:44;;;;;;;;;;;;;;;14.70;67.02;100911.09;5324350;32;34271;-73
2022/11/07 08:26:45;;;;;;;;;;;;;;;14.80;67.87;100905.28;5304777;32;34236;-71
2022/11/07 08:29:47;;;;;;;;;;;;;;;15.73;63.48;100909.50;5304044;32;34223;-73
2022/11/07 08:32:49;;;;;;;;;;;;;;;15.75;62.83;100903.19;5298153;32;35487;-73
2022/11/07 08:35:55;;;;;;;;;;;;;;;15.67;63.11;100908.88;5316153;32;35426;-74
2022/11/07 08:38:57;;;;;;;;;;;;;;;15.64;63.31;100898.44;5299766;32;35554;-70
2022/11/07 08:41:59;;;;;;;;;;;;;;;15.53;64.11;100897.25;5310478;32;35885;-72
2022/11/07 08:45:01;;;;;;;;;;;;;;;15.70;63.30;100911.37;5324663;32;33612;-75
2022/11/07 08:48:03;;;;;;;;;;;;;;;16.00;62.59;100913.34;5290148;32;34292;-74
2022/11/07 08:51:06;;;;;;;;;;;;;;;15.52;63.27;100909.66;5314162;32;44236;-76
2022/11/07 08:54:07;;;;;;;;;;;;;;;15.67;62.15;100921.28;5308386;32;33354;-69
2022/11/07 08:57:09;;;;;;;;;;;;;;;16.10;60.34;100911.94;5327811;32;34266;-74
2022/11/07 09:00:12;;;;;;;;;;;;;;;15.33;62.65;100911.53;5319741;32;34812;-69
2022/11/07 09:03:13;;;;;;;;;;;;;;;15.95;60.43;100910.94;5303178;32;34043;-76
2022/11/07 09:06:35;;;;;;;;;;;;;;;15.68;60.24;100917.69;5296961;32;45046;-72
2022/11/07 09:09:37;;;;;;;;;;;;;;;16.15;58.96;100927.56;5328506;32;35478;-73
2022/11/07 09:12:43;;;;;;;;;;;;;;;16.13;58.90;100925.00;5316450;32;34175;-73
2022/11/07 09:15:45;;;;;;;;;;;;;;;16.35;58.08;100926.50;5284335;32;847499;-74
2022/11/07 09:18:52;;;;;;;;;;;;;;;16.21;57.10;100930.75;5305367;32;34812;-77
2022/11/07 09:21:55;;;;;;;;;;;;;;;14.77;60.91;100929.25;5311866;32;34839;-72
2022/11/07 09:24:57;;;;;;;;;;;;;;;15.84;57.67;100917.72;5313443;32;34296;-80
2022/11/07 09:28:02;;;;;;;;;;;;;;;16.15;57.48;100930.22;5320312;32;35617;-69
2022/11/07 09:31:05;;;;;;;;;;;;;;;15.60;58.31;100930.44;5311344;32;34058;-75
2022/11/07 09:34:06;;;;;;;;;;;;;;;16.32;56.04;100935.50;5327162;32;46612;-74
2022/11/07 09:37:08;;;;;;;;;;;;;;;15.80;57.72;100932.97;5311055;32;34149;-82
2022/11/07 09:40:37;;;;;;;;;;;;;;;16.42;56.14;100925.22;5314950;32;34304;-80
2022/11/07 09:43:42;;;;;;;;;;;;;;;15.21;59.95;100933.31;5317392;32;44853;-68
2022/11/07 09:46:47;;;;;;;;;;;;;;;16.46;56.42;100929.44;5313871;32;34412;-71
2022/11/07 09:49:50;;;;;;;;;;;;;;;16.71;54.61;100932.47;5319526;32;34068;-69
2022/11/07 09:52:56;;;;;;;;;;;;;;;15.58;58.95;100927.84;5309982;32;36180;-71
2022/11/07 09:55:59;;;;;;;;;;;;;;;16.02;57.65;100926.50;5299788;32;34054;-70
2022/11/07 09:59:04;;;;;;;;;;;;;;;15.41;59.78;100927.88;5326307;32;34405;-69
2022/11/07 10:02:15;;;;;;;;;;;;;;;16.12;57.45;100925.09;5313353;32;45036;-71
2022/11/07 10:05:43;;;;;;;;;;;;;;;16.08;57.24;100927.03;5341255;32;35600;-71
2022/11/07 10:08:51;;;;;;;;;;;;;;;16.34;56.54;100922.13;5315900;32;34505;-71
2022/11/07 10:11:59;;;;;;;;;;;;;;;16.29;57.03;100930.34;5311015;32;35976;-70
2022/11/07 10:15:20;;;;;;;;;;;;;;;17.01;54.20;100926.38;5315787;32;35992;-69
2022/11/07 10:18:25;;;;;;;;;;;;;;;16.07;56.90;100924.47;5293688;32;35501;-70
2022/11/07 10:21:29;;;;;;;;;;;;;;;16.99;54.81;100921.13;5316290;32;34814;-66
2022/11/07 10:24:45;;;;;;;;;;;;;;;15.96;57.60;100909.13;5318842;32;43151;-69
2022/11/07 10:27:50;;;;;;;;;;;;;;;16.59;56.37;100905.72;5312885;32;34543;-66
2022/11/07 10:30:53;;;;;;;;;;;;;;;15.83;55.41;100903.62;5321907;32;34838;-68
2022/11/07 10:33:56;;;;;;;;;;;;;;;15.23;58.33;100899.66;5297848;32;35518;-73
2022/11/07 10:36:58;;;;;;;;;;;;;;;15.50;56.33;100908.00;5302914;32;34269;-69
2022/11/07 10:40:00;;;;;;;;;;;;;;;15.03;57.12;100916.56;5310885;32;36987;-75
2022/11/07 10:43:02;;;;;;;;;;;;;;;15.50;55.95;100903.56;5317806;32;35478;-71
2022/11/07 10:46:18;;;;;;;;;;;;;;;15.43;56.74;100907.47;5315719;32;34590;-72
2022/11/07 10:49:20;;;;;;;;;;;;;;;15.10;59.33;100902.94;5307277;32;35607;-70
2022/11/07 10:52:22;;;;;;;;;;;;;;;15.21;59.72;100906.84;5320639;32;34264;-75
2022/11/07 10:55:24;;;;;;;;;;;;;;;15.35;58.92;100907.00;5306340;32;35447;-73
2022/11/07 10:58:27;;;;;;;;;;;;;;;15.64;57.39;100906.38;5318172;32;34543;-72
2022/11/07 11:01:29;;;;;;;;;;;;;;;14.76;59.34;100909.03;5306761;32;35550;-72
2022/11/07 11:04:32;;;;;;;;;;;;;;;15.04;59.13;100899.72;5323696;32;35882;-72
2022/11/07 11:07:34;;;;;;;;;;;;;;;14.00;61.90;100897.56;5329736;32;35931;-68
2022/11/07 11:10:36;;;;;;;;;;;;;;;14.91;59.51;100894.19;5304734;32;44993;-71
2022/11/07 11:13:38;;;;;;;;;;;;;;;14.83;60.02;100896.34;5313285;32;35472;-78
2022/11/07 11:16:40;;;;;;;;;;;;;;;14.90;58.79;100888.03;5294339;32;34426;-73
2022/11/07 11:19:51;;;;;;;;;;;;;;;14.62;62.08;100883.22;5327244;32;34325;-72
2022/11/07 11:22:53;;;;;;;;;;;;;;;15.12;60.47;100877.22;5309416;32;35386;-70
2022/11/07 11:26:02;;;;;;;;;;;;;;;14.81;60.96;100877.03;5326444;32;34352;-72
2022/11/07 11:29:05;;;;;;;;;;;;;;;15.05;60.33;100872.31;5311450;32;34232;-74
2022/11/07 11:32:11;;;;;;;;;;;;;;;14.26;62.57;100869.06;5312311;32;44117;-70
2022/11/07 11:35:16;;;;;;;;;;;;;;;15.07;60.40;100866.03;5330314;32;34701;-73
2022/11/07 11:38:27;;;;;;;;;;;;;;;15.37;58.43;100868.91;5310890;32;34452;-70
2022/11/07 11:41:39;;;;;;;;;;;;;;;15.25;59.20;100866.88;5326869;32;36385;-70
2022/11/07 11:44:42;;;;;;;;;;;;;;;15.07;59.04;100868.69;5335051;32;44578;-73
2022/11/07 11:47:46;;;;;;;;;;;;;;;15.53;58.39;100865.47;5297829;32;34688;-73
2022/11/07 11:50:50;;;;;;;;;;;;;;;15.24;59.39;100866.97;5322947;32;34443;-72
2022/11/07 11:53:52;;;;;;;;;;;;;;;15.79;57.78;100861.50;5315496;32;35807;-70
2022/11/07 11:57:02;;;;;;;;;;;;;;;14.89;60.21;100856.34;5326944;32;35049;-71
2022/11/07 12:00:13;;;;;;;;;;;;;;;14.76;61.25;100864.03;5314307;32;34549;-70
2022/11/07 12:03:24;;;;;;;;;;;;;;;13.80;65.44;100864.09;5305710;32;44367;-68
2022/11/07 12:06:33;;;;;;;;;;;;;;;14.61;61.54;100849.75;5317190;32;35617;-71
2022/11/07 12:09:47;;;;;;;;;;;;;;;14.22;62.77;100855.13;5308340;32;46785;-73
2022/11/07 12:12:55;;;;;;;;;;;;;;;14.01;65.18;100854.34;5326262;32;34646;-74
2022/11/07 12:16:00;;;;;;;;;;;;;;;14.09;64.30;100848.69;5296638;32;37154;-75
2022/11/07 12:19:12;;;;;;;;;;;;;;;14.44;62.71;100851.47;5318537;32;35548;-76
2022/11/07 12:22:14;;;;;;;;;;;;;;;15.11;61.64;100851.69;5313708;32;44366;-75
2022/11/07 12:25:35;;;;;;;;;;;;;;;14.97;61.43;100851.53;5307150;32;35505;-75
2022/11/07 12:28:37;;;;;;;;;;;;;;;15.29;61.06;100852.56;5323476;32;45646;-81
2022/11/07 12:31:42;;;;;;;;;;;;;;;14.94;62.42;100857.00;5314307;32;34731;-73
2022/11/07 12:34:50;;;;;;;;;;;;;;;14.76;62.63;100855.25;5328207;32;33354;-76
2022/11/07 12:37:53;;;;;;;;;;;;;;;15.57;59.44;100835.22;5326342;32;34493;-70
2022/11/07 12:41:04;;;;;;;;;;;;;;;15.39;58.93;100848.50;5311540;32;34226;-69
2022/11/07 12:44:09;;;;;;;;;;;;;;;15.26;59.57;100846.53;5335712;32;46602;-67
2022/11/07 12:47:14;;;;;;;;;;;;;;;14.52;61.09;100846.72;5296803;32;33923;-72
2022/11/07 12:50:25;;;;;;;;;;;;;;;13.84;63.93;100848.94;5320852;32;35105;-73
2022/11/07 12:53:36;;;;;;;;;;;;;;;14.75;61.13;100853.50;5303962;32;34390;-71
2022/11/07 12:56:38;;;;;;;;;;;;;;;15.17;59.92;100851.38;5311452;32;46592;-69
2022/11/07 12:59:41;;;;;;;;;;;;;;;14.84;59.51;100850.44;5330845;32;35882;-81
2022/11/07 13:02:52;;;;;;;;;;;;;;;15.74;57.25;100840.53;5307120;32;34860;-75
2022/11/07 13:06:03;;;;;;;;;;;;;;;16.52;56.66;100839.72;5308559;32;33407;-75
2022/11/07 13:09:24;;;;;;;;;;;;;;;17.71;51.99;100829.22;5324922;32;46751;-77
2022/11/07 13:12:44;;;;;;;;;;;;;;;19.70;46.67;100829.44;5311188;32;33910;-86
2022/11/07 13:15:49;;;;;;;;;;;;;;;19.17;46.15;100833.97;5316981;32;34436;-84
2022/11/07 13:19:31;;;;;;;;;;;;;;;18.49;47.01;100832.25;5317040;32;47668;-76
2022/11/07 13:22:35;;;;;;;;;;;;;;;16.29;54.05;100842.81;5321691;32;34619;-82
2022/11/07 13:25:39;;;;;;;;;;;;;;;17.68;51.35;100840.00;5318954;32;46409;-77
2022/11/07 13:28:42;;;;;;;;;;;;;;;17.99;49.37;100833.66;5314506;32;34246;-79
2022/11/07 13:31:44;;;;;;;;;;;;;;;16.89;52.34;100842.12;5338404;32;35682;-75
2022/11/07 13:34:58;;;;;;;;;;;;;;;15.67;55.83;100844.44;5313383;32;36342;-74
2022/11/07 13:38:01;;;;;;;;;;;;;;;15.89;56.12;100842.34;5328764;32;35444;-69
2022/11/07 13:41:09;;;;;;;;;;;;;;;16.28;55.01;100843.75;5317740;32;43485;-75
2022/11/07 13:44:16;;;;;;;;;;;;;;;15.82;57.27;100846.25;5305571;32;35499;-73
2022/11/07 13:47:20;;;;;;;;;;;;;;;16.06;56.14;100844.09;5312792;32;34630;-76
2022/11/07 13:50:24;;;;;;;;;;;;;;;16.09;56.23;100843.91;5316209;32;34264;-75
2022/11/07 13:53:29;;;;;;;;;;;;;;;16.46;55.93;100840.06;5329730;32;34285;-75
2022/11/07 13:56:34;;;;;;;;;;;;;;;16.85;54.07;100824.66;5294718;32;34205;-75
2022/11/07 13:59:41;;;;;;;;;;;;;;;14.84;59.85;100831.91;5306425;32;46939;-69
2022/11/07 14:02:50;;;;;;;;;;;;;;;15.03;58.71;100826.56;5307171;32;35671;-73
2022/11/07 14:05:53;;;;;;;;;;;;;;;16.14;55.43;100830.41;5302112;32;34194;-73
2022/11/07 14:08:55;;;;;;;;;;;;;;;15.70;55.77;100831.88;5307716;32;34331;-84
2022/11/07 14:11:57;;;;;;;;;;;;;;;15.96;53.33;100830.47;5295370;32;35055;-77
2022/11/07 14:14:59;;;;;;;;;;;;;;;16.02;53.72;100829.28;5330860;32;34130;-77
2022/11/07 14:18:01;;;;;;;;;;;;;;;16.13;52.94;100829.56;5303924;32;36232;-78
2022/11/07 14:21:05;;;;;;;;;;;;;;;14.43;55.91;100836.53;5322494;32;44814;-81
2022/11/07 14:24:26;;;;;;;;;;;;;;;14.94;56.06;100834.94;5318292;32;35692;-78
2022/11/07 14:27:28;;;;;;;;;;;;;;;14.40;57.21;100842.81;5321486;32;35310;-80
2022/11/07 14:30:30;;;;;;;;;;;;;;;14.99;55.11;100838.22;5330164;32;33216;-75
2022/11/07 14:33:32;;;;;;;;;;;;;;;16.11;52.70;100839.41;5312106;32;33448;-73
2022/11/07 14:36:45;;;;;;;;;;;;;;;15.74;53.90;100837.03;5324047;32;46512;-78
2022/11/07 14:39:47;;;;;;;;;;;;;;;15.03;55.61;100838.00;5316557;32;34689;-70
2022/11/07 14:42:50;;;;;;;;;;;;;;;15.41;54.31;100829.87;5312935;32;34443;-76
2022/11/07 14:45:54;;;;;;;;;;;;;;;15.30;54.74;100848.09;5320690;32;35199;-75
2022/11/07 14:49:25;;;;;;;;;;;;;;;15.23;55.28;100844.06;5328695;32;44691;-71
2022/11/07 14:52:32;;;;;;;;;;;;;;;15.53;55.45;100845.12;5324387;32;35215;-75
2022/11/07 14:55:38;;;;;;;;;;;;;;;14.78;57.14;100858.66;5319522;32;34428;-71
2022/11/07 14:58:40;;;;;;;;;;;;;;;14.58;56.95;100849.91;5314642;32;44542;-75
2022/11/07 15:01:56;;;;;;;;;;;;;;;15.53;53.60;100853.09;5328803;32;34324;-70
2022/11/07 15:04:58;;;;;;;;;;;;;;;15.33;54.32;100854.13;5320976;32;34546;-72
2022/11/07 15:08:31;;;;;;;;;;;;;;;15.17;55.11;100850.53;5325461;32;46113;-74
2022/11/07 15:11:34;;;;;;;;;;;;;;;14.86;55.52;100859.12;5335135;32;34335;-77
2022/11/07 15:14:36;;;;;;;;;;;;;;;14.90;55.31;100860.72;5312427;32;44729;-74
2022/11/07 15:17:45;;;;;;;;;;;;;;;14.54;56.72;100858.91;5308924;32;35582;-78
2022/11/07 15:20:55;;;;;;;;;;;;;;;14.36;57.40;100865.03;5307516;32;34373;-72
2022/11/07 15:24:00;;;;;;;;;;;;;;;14.59;57.22;100862.19;5326957;32;34301;-82
2022/11/07 15:27:05;;;;;;;;;;;;;;;14.98;56.44;100860.31;5321443;32;34326;-70
2022/11/07 15:30:22;;;;;;;;;;;;;;;14.91;56.17;100862.41;5323708;32;44671;-77
2022/11/07 15:33:24;;;;;;;;;;;;;;;15.05;55.42;100862.59;5322131;32;35544;-78
2022/11/07 15:36:26;;;;;;;;;;;;;;;14.80;56.38;100860.28;5291837;32;34095;-74
2022/11/07 15:39:28;;;;;;;;;;;;;;;13.86;58.12;100864.75;5321314;32;35597;-74
2022/11/07 15:42:30;;;;;;;;;;;;;;;14.28;57.98;100859.25;5318873;32;34412;-70
2022/11/07 15:45:35;;;;;;;;;;;;;;;14.27;57.38;100868.13;5315285;32;34314;-73
2022/11/07 15:48:36;;;;;;;;;;;;;;;14.77;56.17;100876.34;5312805;32;44424;-77
2022/11/07 15:51:42;;;;;;;;;;;;;;;14.26;57.67;100863.78;5292100;32;34114;-73
2022/11/07 15:54:44;;;;;;;;;;;;;;;14.01;58.61;100875.47;5323143;32;33635;-77